Time;durP1;ratioP1;P1;durP2;ratioP2;P2;SDS_P1;SDS_P2;PMS_P1;PMS_P2;Temp;Humidity;BMP_temperature;BMP_pressure;BME280_temperature;BME280_humidity;BME280_pressure;Samples;Min_cycle;Max_cycle;Signal;HPM_P1;HPM_P2
2022/04/22 00:00:55;;;;;;;;;;;10.10;99.90;;;;;;5075585;28;19924;-71
2022/04/22 00:03:21;;;;;;;;;;;10.10;99.90;;;;;;5075499;28;19929;-70
2022/04/22 00:05:46;;;;;;;;;;;9.90;99.90;;;;;;5057663;28;19968;-71
2022/04/22 00:08:12;;;;;;;;;;;10.00;99.90;;;;;;5075250;28;19978;-72
2022/04/22 00:11:29;;;;;;;;;;;9.90;99.90;;;;;;5074519;28;20023;-70
2022/04/22 00:13:23;;;;;;;;;;;9.90;99.90;;;;;;5074168;28;19924;-72
2022/04/22 00:15:49;;;;;;;;;;;9.90;99.90;;;;;;5074287;28;19925;-70
2022/04/22 00:18:14;;;;;;;;;;;9.90;99.90;;;;;;5075199;28;19985;-70
2022/04/22 00:20:40;;;;;;;;;;;9.80;99.90;;;;;;5074925;28;19986;-70
2022/04/22 00:23:05;;;;;;;;;;;9.80;99.90;;;;;;5073974;28;20018;-69
2022/04/22 00:25:31;;;;;;;;;;;9.70;99.90;;;;;;5075160;28;19928;-71
2022/04/22 00:27:56;;;;;;;;;;;10.40;99.90;;;;;;5075067;28;20303;-71
2022/04/22 00:30:22;;;;;;;;;;;9.70;99.90;;;;;;5075026;28;20341;-70
2022/04/22 00:32:48;;;;;;;;;;;9.80;99.90;;;;;;5074050;28;20435;-70
2022/04/22 00:35:13;;;;;;;;;;;9.70;99.90;;;;;;5074732;28;19947;-71
2022/04/22 00:37:40;;;;;;;;;;;9.60;99.90;;;;;;5074677;28;19924;-72
2022/04/22 00:40:05;;;;;;;;;;;9.60;99.90;;;;;;5073920;28;19931;-70
2022/04/22 00:42:31;;;;;;;;;;;9.60;99.90;;;;;;5074838;28;19928;-69
2022/04/22 00:44:57;;;;;;;;;;;9.50;99.90;;;;;;5073779;28;19962;-71
2022/04/22 00:47:23;;;;;;;;;;;9.50;99.90;;;;;;5074471;28;19925;-70
2022/04/22 00:49:49;;;;;;;;;;;9.50;99.90;;;;;;5073622;28;19976;-71
2022/04/22 00:52:14;;;;;;;;;;;9.60;99.90;;;;;;5074462;28;20374;-70
2022/04/22 00:54:41;;;;;;;;;;;9.50;99.90;;;;;;5074455;28;19928;-72
2022/04/22 00:57:06;;;;;;;;;;;10.00;99.90;;;;;;5073551;28;20015;-71
2022/04/22 00:59:33;;;;;;;;;;;9.40;99.90;;;;;;5074621;28;19972;-72
2022/04/22 01:01:58;;;;;;;;;;;9.40;99.90;;;;;;5074319;28;19925;-70
2022/04/22 01:09:52;;;;;;;;;;;9.30;99.90;;;;;;5074335;28;19928;-71
2022/04/22 01:12:18;;;;;;;;;;;9.20;99.90;;;;;;5074267;28;20015;-70
2022/04/22 01:14:44;;;;;;;;;;;9.20;99.90;;;;;;5072966;28;19933;-70
2022/04/22 01:17:10;;;;;;;;;;;9.20;99.90;;;;;;5074067;28;19924;-69
2022/04/22 01:19:35;;;;;;;;;;;9.20;99.90;;;;;;5072775;28;19931;-72
2022/04/22 01:22:01;;;;;;;;;;;9.40;99.90;;;;;;5073253;28;19924;-71
2022/04/22 01:24:27;;;;;;;;;;;9.10;99.90;;;;;;5073687;28;19924;-70
2022/04/22 01:26:54;;;;;;;;;;;9.10;99.90;;;;;;5073121;28;20003;-70
2022/04/22 01:29:19;;;;;;;;;;;9.40;99.90;;;;;;5072792;28;20394;-69
2022/04/22 01:31:45;;;;;;;;;;;9.00;99.90;;;;;;5073901;28;20017;-69
2022/04/22 01:34:11;;;;;;;;;;;8.90;99.90;;;;;;5073639;28;19934;-70
2022/04/22 01:36:36;;;;;;;;;;;9.20;99.90;;;;;;5073804;28;19946;-72
2022/04/22 01:39:02;;;;;;;;;;;9.50;99.90;;;;;;5073986;28;19970;-72
2022/04/22 01:41:29;;;;;;;;;;;8.80;99.90;;;;;;5073912;28;20011;-72
2022/04/22 01:43:55;;;;;;;;;;;9.20;99.90;;;;;;5073735;28;19925;-70
2022/04/22 01:46:21;;;;;;;;;;;9.00;99.90;;;;;;5073776;28;20334;-69
2022/04/22 01:48:47;;;;;;;;;;;8.70;99.90;;;;;;5073736;28;20019;-70
2022/04/22 01:51:12;;;;;;;;;;;8.70;99.90;;;;;;5072486;28;19974;-70
2022/04/22 01:53:38;;;;;;;;;;;8.60;99.90;;;;;;5073477;28;20329;-71
2022/04/22 01:56:04;;;;;;;;;;;8.60;99.90;;;;;;5073680;28;19933;-71
2022/04/22 01:58:29;;;;;;;;;;;8.50;99.90;;;;;;5072729;28;19932;-69
2022/04/22 02:00:55;;;;;;;;;;;7.80;99.90;;;;;;5073546;28;19953;-70
2022/04/22 02:03:20;;;;;;;;;;;8.90;99.90;;;;;;5073554;28;19974;-71
2022/04/22 02:05:46;;;;;;;;;;;8.90;99.90;;;;;;5072484;28;20013;-71
2022/04/22 02:08:12;;;;;;;;;;;8.90;99.90;;;;;;5073379;28;19999;-70
2022/04/22 02:10:38;;;;;;;;;;;9.00;99.90;;;;;;5072677;28;19925;-71
2022/04/22 02:13:05;;;;;;;;;;;8.40;99.90;;;;;;5072627;28;19924;-71
2022/04/22 02:15:30;;;;;;;;;;;8.40;99.90;;;;;;5073436;28;19975;-68
2022/04/22 02:17:56;;;;;;;;;;;9.00;99.90;;;;;;5073526;28;20415;-69
2022/04/22 02:20:22;;;;;;;;;;;8.50;99.90;;;;;;5073211;28;19925;-73
2022/04/22 02:22:48;;;;;;;;;;;8.40;99.90;;;;;;5073141;28;20453;-71
2022/04/22 02:25:13;;;;;;;;;;;8.40;99.90;;;;;;5073474;28;19924;-72
2022/04/22 02:30:23;;;;;;;;;;;9.40;99.90;;;;;;5073334;28;19924;-71
2022/04/22 02:32:50;;;;;;;;;;;8.30;99.90;;;;;;5073331;28;19925;-69
2022/04/22 02:35:16;;;;;;;;;;;8.50;99.90;;;;;;5073050;28;20295;-71
2022/04/22 02:37:41;;;;;;;;;;;8.30;99.90;;;;;;5059242;28;19931;-71
2022/04/22 02:40:07;;;;;;;;;;;9.00;99.90;;;;;;5077261;28;19924;-69
2022/04/22 02:45:29;;;;;;;;;;;8.30;99.90;;;;;;5076908;28;19931;-71
2022/04/22 02:47:56;;;;;;;;;;;8.20;99.90;;;;;;5076837;28;19985;-71
2022/04/22 02:50:22;;;;;;;;;;;8.00;99.90;;;;;;5076948;28;19924;-70
2022/04/22 02:52:47;;;;;;;;;;;8.20;99.90;;;;;;5076829;28;19924;-70
2022/04/22 02:55:13;;;;;;;;;;;8.20;99.90;;;;;;5075401;28;20291;-71
2022/04/22 02:57:38;;;;;;;;;;;8.20;99.90;;;;;;5076695;28;19924;-69
2022/04/22 03:00:04;;;;;;;;;;;7.60;99.90;;;;;;5076664;28;19932;-71
2022/04/22 03:02:30;;;;;;;;;;;8.10;99.90;;;;;;5076526;28;20402;-72
2022/04/22 03:04:55;;;;;;;;;;;8.10;99.90;;;;;;5076698;28;19924;-73
2022/04/22 03:07:21;;;;;;;;;;;8.70;99.90;;;;;;5076747;28;20015;-70
2022/04/22 03:09:46;;;;;;;;;;;8.20;99.90;;;;;;5076631;28;19932;-72
2022/04/22 03:12:16;;;;;;;;;;;8.00;99.90;;;;;;5076549;28;19925;-71
2022/04/22 03:14:44;;;;;;;;;;;8.30;99.90;;;;;;5076337;28;19932;-70
2022/04/22 03:17:09;;;;;;;;;;;8.00;99.90;;;;;;5076318;28;19975;-71
2022/04/22 03:19:35;;;;;;;;;;;8.30;99.90;;;;;;5076091;28;19979;-69
2022/04/22 03:22:00;;;;;;;;;;;8.70;99.90;;;;;;5076469;28;19931;-71
2022/04/22 03:24:26;;;;;;;;;;;8.00;99.90;;;;;;5075311;28;20620;-72
2022/04/22 03:26:51;;;;;;;;;;;8.00;99.90;;;;;;5076316;28;20299;-72
2022/04/22 03:29:17;;;;;;;;;;;8.00;99.90;;;;;;5075282;28;19925;-71
2022/04/22 03:31:43;;;;;;;;;;;8.00;99.90;;;;;;5076087;28;19932;-71
2022/04/22 03:34:08;;;;;;;;;;;7.90;99.90;;;;;;5075926;28;19928;-70
2022/04/22 03:36:34;;;;;;;;;;;7.90;99.90;;;;;;5058475;28;19932;-72
2022/04/22 03:39:00;;;;;;;;;;;7.90;99.90;;;;;;5076164;28;19924;-72
2022/04/22 03:41:26;;;;;;;;;;;7.90;99.90;;;;;;5074793;28;19931;-71
2022/04/22 03:43:51;;;;;;;;;;;7.80;99.90;;;;;;5075917;28;19928;-69
2022/04/22 03:46:17;;;;;;;;;;;7.80;99.90;;;;;;5075838;28;19978;-70
2022/04/22 03:48:42;;;;;;;;;;;7.80;99.90;;;;;;5075351;28;19925;-70
2022/04/22 03:51:08;;;;;;;;;;;7.80;99.90;;;;;;5075837;28;20371;-68
2022/04/22 03:53:36;;;;;;;;;;;7.80;99.90;;;;;;5074580;28;19931;-71
2022/04/22 03:58:10;;;;;;;;;;;7.70;99.90;;;;;;5074863;28;19929;-70
2022/04/22 03:58:48;;;;;;;;;;;7.70;99.90;;;;;;5075609;28;19924;-69
2022/04/22 04:01:14;;;;;;;;;;;8.50;99.90;;;;;;5075574;28;20346;-72
2022/04/22 04:03:39;;;;;;;;;;;7.70;99.90;;;;;;5074776;28;19935;-72
2022/04/22 04:06:07;;;;;;;;;;;7.60;99.90;;;;;;5075349;28;20307;-71
2022/04/22 04:08:32;;;;;;;;;;;7.60;99.90;;;;;;5075492;28;20019;-69
2022/04/22 04:16:27;;;;;;;;;;;8.60;99.90;;;;;;5075479;28;20360;-69
2022/04/22 04:23:14;;;;;;;;;;;7.80;99.90;;;;;;5075340;28;19924;-70
2022/04/22 04:24:24;;;;;;;;;;;7.50;99.90;;;;;;5052742;28;20007;-72
2022/04/22 04:26:50;;;;;;;;;;;8.20;99.90;;;;;;5052939;28;20363;-69
2022/04/22 04:29:16;;;;;;;;;;;7.50;99.90;;;;;;5036487;28;20043;-71
2022/04/22 04:31:41;;;;;;;;;;;7.50;99.90;;;;;;5052831;28;20323;-71
2022/04/22 04:34:07;;;;;;;;;;;8.30;99.90;;;;;;5036221;28;19948;-71
2022/04/22 04:36:32;;;;;;;;;;;7.40;99.90;;;;;;5052679;28;19947;-71
2022/04/22 04:38:58;;;;;;;;;;;7.40;99.90;;;;;;5036211;28;19932;-70
2022/04/22 04:41:24;;;;;;;;;;;7.30;99.90;;;;;;5019852;28;20332;-70
2022/04/22 04:43:51;;;;;;;;;;;7.30;99.90;;;;;;5036236;28;20343;-72
2022/04/22 04:46:17;;;;;;;;;;;7.20;99.90;;;;;;5052504;28;19925;-70
2022/04/22 04:48:43;;;;;;;;;;;7.20;99.90;;;;;;5052454;28;19925;-72
2022/04/22 04:51:08;;;;;;;;;;;7.20;99.90;;;;;;5052347;28;19931;-71
2022/04/22 04:53:34;;;;;;;;;;;8.20;99.90;;;;;;5051952;28;20047;-70
2022/04/22 04:56:00;;;;;;;;;;;7.50;99.90;;;;;;5052247;28;19974;-72
2022/04/22 04:58:26;;;;;;;;;;;7.20;99.90;;;;;;5051768;28;20422;-70
2022/04/22 05:00:52;;;;;;;;;;;7.20;99.90;;;;;;5057371;28;19977;-72
2022/04/22 05:03:17;;;;;;;;;;;7.20;99.90;;;;;;5074429;28;19931;-69
2022/04/22 05:05:43;;;;;;;;;;;7.30;99.90;;;;;;5074275;28;19924;-71
2022/04/22 05:08:10;;;;;;;;;;;7.30;99.90;;;;;;5074217;28;19925;-71
2022/04/22 05:10:36;;;;;;;;;;;7.70;99.90;;;;;;5074076;28;20288;-70
2022/04/22 05:13:03;;;;;;;;;;;5.80;99.90;;;;;;5073136;28;19928;-71
2022/04/22 05:15:29;;;;;;;;;;;7.30;99.90;;;;;;5073070;28;19932;-69
2022/04/22 05:17:56;;;;;;;;;;;7.40;99.90;;;;;;5074165;28;19986;-69
2022/04/22 05:20:25;;;;;;;;;;;7.30;99.90;;;;;;5073989;28;19928;-70
2022/04/22 05:22:51;;;;;;;;;;;7.90;99.90;;;;;;5073839;28;19931;-68
2022/04/22 05:25:17;;;;;;;;;;;7.30;99.90;;;;;;5073891;28;19925;-70
2022/04/22 05:27:43;;;;;;;;;;;7.40;99.90;;;;;;5073855;28;20014;-70
2022/04/22 05:32:54;;;;;;;;;;;7.40;99.90;;;;;;5073883;28;19986;-71
2022/04/22 05:35:22;;;;;;;;;;;7.40;99.90;;;;;;5073720;28;19925;-69
2022/04/22 05:37:52;;;;;;;;;;;8.30;99.90;;;;;;5073777;28;20019;-71
2022/04/22 05:40:22;;;;;;;;;;;7.40;99.90;;;;;;5073964;28;19928;-72
2022/04/22 05:42:48;;;;;;;;;;;7.50;99.90;;;;;;5073988;28;19978;-69
2022/04/22 05:45:15;;;;;;;;;;;7.50;99.90;;;;;;5073857;28;19924;-71
2022/04/22 05:47:41;;;;;;;;;;;8.10;99.90;;;;;;5072827;28;19925;-70
2022/04/22 05:50:08;;;;;;;;;;;7.90;99.90;;;;;;5073604;28;20414;-69
2022/04/22 05:52:34;;;;;;;;;;;7.50;99.90;;;;;;5073499;28;19924;-71
2022/04/22 05:55:04;;;;;;;;;;;8.10;99.90;;;;;;5073288;28;19977;-71
2022/04/22 05:57:30;;;;;;;;;;;8.30;99.90;;;;;;5073664;28;19925;-69
2022/04/22 05:59:56;;;;;;;;;;;7.60;99.90;;;;;;5073773;28;20311;-69
2022/04/22 06:02:22;;;;;;;;;;;7.60;99.90;;;;;;5073622;28;19935;-71
2022/04/22 06:04:47;;;;;;;;;;;7.90;99.90;;;;;;5073474;28;19932;-70
2022/04/22 06:07:13;;;;;;;;;;;8.30;99.90;;;;;;5073441;28;19979;-70
2022/04/22 06:12:22;;;;;;;;;;;7.90;99.90;;;;;;5077727;28;19978;-70
2022/04/22 06:14:48;;;;;;;;;;;7.90;99.90;;;;;;5077601;28;19924;-68
2022/04/22 06:17:14;;;;;;;;;;;8.00;99.90;;;;;;5077548;28;19924;-70
2022/04/22 06:19:39;;;;;;;;;;;8.00;99.90;;;;;;5077514;28;19924;-71
2022/04/22 06:22:05;;;;;;;;;;;8.10;99.90;;;;;;5076404;28;20299;-70
2022/04/22 06:24:30;;;;;;;;;;;8.10;99.90;;;;;;5059997;28;19931;-71
2022/04/22 06:26:56;;;;;;;;;;;8.20;99.90;;;;;;5076481;28;20367;-71
2022/04/22 06:29:22;;;;;;;;;;;8.20;99.90;;;;;;5077433;28;19925;-69
2022/04/22 06:31:48;;;;;;;;;;;8.30;99.90;;;;;;5077051;28;19925;-73
2022/04/22 06:34:13;;;;;;;;;;;8.30;99.90;;;;;;5059118;28;19925;-70
2022/04/22 06:36:39;;;;;;;;;;;8.40;99.90;;;;;;5076973;28;19946;-72
2022/04/22 06:39:05;;;;;;;;;;;8.40;99.90;;;;;;5077344;28;19924;-70
2022/04/22 06:46:59;;;;;;;;;;;8.60;99.90;;;;;;5076047;28;20374;-72
2022/04/22 06:49:25;;;;;;;;;;;8.70;99.90;;;;;;5076847;28;19963;-71
2022/04/22 06:51:50;;;;;;;;;;;8.70;99.90;;;;;;5076892;28;19924;-71
2022/04/22 06:54:17;;;;;;;;;;;8.80;99.90;;;;;;5076772;28;19983;-69
2022/04/22 06:56:44;;;;;;;;;;;8.80;99.90;;;;;;5075732;28;19924;-70
2022/04/22 06:59:09;;;;;;;;;;;8.90;99.90;;;;;;5075503;28;20418;-69
2022/04/22 07:01:36;;;;;;;;;;;8.90;99.90;;;;;;5076649;28;19924;-71
2022/04/22 07:04:02;;;;;;;;;;;8.80;99.90;;;;;;5076582;28;19928;-70
2022/04/22 07:06:27;;;;;;;;;;;9.20;99.90;;;;;;5076710;28;20279;-70
2022/04/22 07:08:54;;;;;;;;;;;9.20;99.90;;;;;;5075701;28;19924;-72
2022/04/22 07:11:26;;;;;;;;;;;9.30;99.90;;;;;;5076571;28;19925;-70
2022/04/22 07:13:56;;;;;;;;;;;9.40;99.90;;;;;;5076363;28;19928;-72
2022/04/22 07:16:21;;;;;;;;;;;9.50;99.90;;;;;;5076336;28;20399;-72
2022/04/22 07:18:47;;;;;;;;;;;9.60;99.90;;;;;;5076043;28;19931;-70
2022/04/22 07:21:14;;;;;;;;;;;9.70;99.90;;;;;;5074740;28;19924;-72
2022/04/22 07:23:39;;;;;;;;;;;9.70;99.90;;;;;;5075695;28;20383;-71
2022/04/22 07:26:06;;;;;;;;;;;9.80;99.90;;;;;;5076031;28;19925;-69
2022/04/22 07:28:32;;;;;;;;;;;9.90;99.90;;;;;;5075185;28;20042;-71
2022/04/22 07:30:59;;;;;;;;;;;9.90;99.90;;;;;;5076141;28;20410;-71
2022/04/22 07:33:25;;;;;;;;;;;10.20;99.90;;;;;;5076066;28;20268;-72
2022/04/22 07:35:52;;;;;;;;;;;10.00;99.90;;;;;;5076090;28;19931;-70
2022/04/22 07:38:18;;;;;;;;;;;10.10;99.90;;;;;;5076212;28;19982;-72
2022/04/22 07:40:50;;;;;;;;;;;10.20;99.90;;;;;;5076007;28;20407;-71
2022/04/22 07:48:45;;;;;;;;;;;10.70;99.90;;;;;;5076002;28;19925;-71
2022/04/22 07:51:10;;;;;;;;;;;10.50;99.90;;;;;;5075679;28;19925;-70
2022/04/22 07:53:36;;;;;;;;;;;10.60;99.90;;;;;;5075795;28;19929;-72
2022/04/22 07:56:03;;;;;;;;;;;10.60;99.90;;;;;;5075479;28;19994;-71
2022/04/22 07:58:31;;;;;;;;;;;10.70;99.90;;;;;;5075516;28;19924;-70
2022/04/22 08:00:57;;;;;;;;;;;10.80;99.90;;;;;;5075522;28;19975;-70
2022/04/22 08:03:22;;;;;;;;;;;10.80;99.90;;;;;;5075671;28;19924;-69
2022/04/22 08:05:48;;;;;;;;;;;10.10;99.90;;;;;;5075510;28;19924;-70
2022/04/22 08:08:13;;;;;;;;;;;11.00;99.90;;;;;;5075554;28;19978;-70
2022/04/22 08:10:39;;;;;;;;;;;11.40;99.90;;;;;;5075449;28;20014;-70
2022/04/22 08:13:05;;;;;;;;;;;11.10;99.90;;;;;;5074388;28;19924;-72
2022/04/22 08:15:32;;;;;;;;;;;11.20;99.90;;;;;;5073953;28;19924;-72
2022/04/22 08:17:57;;;;;;;;;;;11.30;99.90;;;;;;5075452;28;19928;-71
2022/04/22 08:20:23;;;;;;;;;;;11.40;99.90;;;;;;5075207;28;20299;-71
2022/04/22 08:22:49;;;;;;;;;;;11.70;99.90;;;;;;5074251;28;20298;-71
2022/04/22 08:25:14;;;;;;;;;;;11.90;99.90;;;;;;5075181;28;20369;-70
2022/04/22 08:27:40;;;;;;;;;;;11.60;99.90;;;;;;5074989;28;19928;-69
2022/04/22 08:30:06;;;;;;;;;;;11.80;99.90;;;;;;5074804;28;19925;-71
2022/04/22 08:32:32;;;;;;;;;;;11.70;99.90;;;;;;5074117;28;19924;-71
2022/04/22 08:34:57;;;;;;;;;;;11.80;99.90;;;;;;5073907;28;20367;-71
2022/04/22 08:37:23;;;;;;;;;;;11.90;99.90;;;;;;5074862;28;20354;-70
2022/04/22 08:39:49;;;;;;;;;;;11.90;99.90;;;;;;5073891;28;19970;-71
2022/04/22 08:42:15;;;;;;;;;;;12.00;99.90;;;;;;5074761;28;19929;-71
2022/04/22 08:44:41;;;;;;;;;;;12.30;99.90;;;;;;5074607;28;20349;-71
2022/04/22 08:50:01;;;;;;;;;;;12.40;99.90;;;;;;5073784;28;19977;-72
2022/04/22 08:52:28;;;;;;;;;;;12.60;99.90;;;;;;5074478;28;19948;-70
2022/04/22 08:54:54;;;;;;;;;;;12.60;99.90;;;;;;5074223;28;20383;-72
2022/04/22 08:57:20;;;;;;;;;;;12.60;99.90;;;;;;5074187;28;20015;-71
2022/04/22 08:59:46;;;;;;;;;;;12.60;99.90;;;;;;5074660;28;19924;-71
2022/04/22 09:02:18;;;;;;;;;;;12.90;99.90;;;;;;5074517;28;20276;-72
2022/04/22 09:04:44;;;;;;;;;;;12.30;99.90;;;;;;5074461;28;20400;-71
2022/04/22 09:07:18;;;;;;;;;;;12.90;99.90;;;;;;5073221;28;19980;-70
2022/04/22 09:09:49;;;;;;;;;;;12.90;99.90;;;;;;5074245;28;20019;-70
2022/04/22 09:12:17;;;;;;;;;;;12.90;99.90;;;;;;5074013;28;20306;-73
2022/04/22 09:14:46;;;;;;;;;;;12.90;99.90;;;;;;5074224;28;19931;-72
2022/04/22 09:17:22;;;;;;;;;;;13.00;99.90;;;;;;5073209;28;19934;-72
2022/04/22 09:19:48;;;;;;;;;;;13.10;99.90;;;;;;5074074;28;19970;-70
2022/04/22 09:22:26;;;;;;;;;;;13.10;99.90;;;;;;5072925;28;19929;-71
2022/04/22 09:24:53;;;;;;;;;;;13.20;99.90;;;;;;5074270;28;20309;-70
2022/04/22 09:27:19;;;;;;;;;;;13.20;99.90;;;;;;5073294;28;19924;-70
2022/04/22 09:29:56;;;;;;;;;;;13.30;99.90;;;;;;5072842;28;19931;-71
2022/04/22 09:32:25;;;;;;;;;;;13.30;99.90;;;;;;5073788;28;19924;-72
2022/04/22 09:34:50;;;;;;;;;;;13.40;99.90;;;;;;5072504;28;20023;-73
2022/04/22 09:42:47;;;;;;;;;;;13.60;99.90;;;;;;5073696;28;19931;-71
2022/04/22 09:45:13;;;;;;;;;;;13.70;99.90;;;;;;5071990;28;20372;-72
2022/04/22 09:47:40;;;;;;;;;;;13.70;99.90;;;;;;5073460;28;19935;-69
2022/04/22 09:50:11;;;;;;;;;;;14.20;99.90;;;;;;5073292;28;19931;-70
2022/04/22 09:52:46;;;;;;;;;;;13.80;99.90;;;;;;5073407;28;19924;-71
2022/04/22 09:55:16;;;;;;;;;;;13.90;99.90;;;;;;5073205;28;19974;-71
2022/04/22 09:57:52;;;;;;;;;;;14.00;99.90;;;;;;5071573;28;20192;-72
2022/04/22 10:00:19;;;;;;;;;;;14.10;99.90;;;;;;5073097;28;19969;-70
2022/04/22 10:02:47;;;;;;;;;;;14.10;99.90;;;;;;5072556;28;19931;-73
2022/04/22 10:05:13;;;;;;;;;;;14.10;99.90;;;;;;5072242;28;19924;-71
2022/04/22 10:07:42;;;;;;;;;;;14.10;99.90;;;;;;5072335;28;19924;-73
2022/04/22 10:10:09;;;;;;;;;;;14.10;99.90;;;;;;5073353;28;19925;-71
2022/04/22 10:12:36;;;;;;;;;;;14.20;99.90;;;;;;5072330;28;19971;-71
2022/04/22 10:15:04;;;;;;;;;;;14.20;99.90;;;;;;5072963;28;20299;-72
2022/04/22 10:17:30;;;;;;;;;;;14.20;99.90;;;;;;5073453;28;19925;-73
2022/04/22 10:19:55;;;;;;;;;;;14.40;99.90;;;;;;5073288;28;20303;-71
2022/04/22 10:22:21;;;;;;;;;;;14.50;99.90;;;;;;5073194;28;19936;-71
2022/04/22 10:24:47;;;;;;;;;;;15.60;99.90;;;;;;5073089;28;19924;-73
2022/04/22 10:27:14;;;;;;;;;;;14.80;99.90;;;;;;5072072;28;19924;-71
2022/04/22 10:29:41;;;;;;;;;;;14.90;99.90;;;;;;5072040;28;19970;-70
2022/04/22 10:32:07;;;;;;;;;;;15.00;99.90;;;;;;5072950;28;19963;-71
2022/04/22 10:34:39;;;;;;;;;;;15.00;99.90;;;;;;5073101;28;19931;-71
2022/04/22 10:37:14;;;;;;;;;;;15.10;99.90;;;;;;5072963;28;19932;-70
2022/04/22 10:39:40;;;;;;;;;;;15.10;99.90;;;;;;5073094;28;20011;-72
2022/04/22 10:42:14;;;;;;;;;;;15.00;99.90;;;;;;5071825;28;19928;-71
2022/04/22 10:47:36;;;;;;;;;;;15.10;99.90;;;;;;5073060;28;19924;-73
2022/04/22 10:50:21;;;;;;;;;;;15.20;99.90;;;;;;5072971;28;19929;-72
2022/04/22 10:53:03;;;;;;;;;;;15.30;98.80;;;;;;5072673;28;19931;-72
2022/04/22 10:55:33;;;;;;;;;;;15.40;98.70;;;;;;5072752;28;20383;-72
2022/04/22 10:58:23;;;;;;;;;;;15.60;98.30;;;;;;5074917;28;19931;-71
2022/04/22 11:00:53;;;;;;;;;;;15.60;96.10;;;;;;5034373;28;19948;-72
2022/04/22 11:03:23;;;;;;;;;;;15.50;93.50;;;;;;5034246;28;19964;-71
2022/04/22 11:06:05;;;;;;;;;;;15.50;91.00;;;;;;5034263;28;19925;-74
2022/04/22 11:08:31;;;;;;;;;;;15.60;93.40;;;;;;5034273;28;20007;-70
2022/04/22 11:10:58;;;;;;;;;;;15.70;92.00;;;;;;5034126;28;20410;-73
2022/04/22 11:13:36;;;;;;;;;;;15.90;88.80;;;;;;5034143;28;19929;-73
2022/04/22 11:16:05;;;;;;;;;;;16.00;91.10;;;;;;5033988;28;19926;-73
2022/04/22 11:18:31;;;;;;;;;;;15.90;90.10;;;;;;5034121;28;19925;-71
2022/04/22 11:21:15;;;;;;;;;;;15.00;90.00;;;;;;5017630;28;19925;-72
2022/04/22 11:23:44;;;;;;;;;;;16.00;87.50;;;;;;5033835;28;19925;-72
2022/04/22 11:26:14;;;;;;;;;;;16.00;87.00;;;;;;5033685;28;19948;-74
2022/04/22 11:28:40;;;;;;;;;;;16.00;81.20;;;;;;5033950;28;19925;-72
2022/04/22 11:31:08;;;;;;;;;;;16.10;81.00;;;;;;5033953;28;19932;-71
2022/04/22 11:33:52;;;;;;;;;;;16.00;81.10;;;;;;5033922;28;19925;-72
2022/04/22 11:36:18;;;;;;;;;;;14.80;82.60;;;;;;5017444;28;19925;-72
2022/04/22 11:38:44;;;;;;;;;;;16.00;84.30;;;;;;5071185;28;19924;-72
2022/04/22 11:41:13;;;;;;;;;;;16.10;80.70;;;;;;5075677;28;19931;-72
2022/04/22 11:43:39;;;;;;;;;;;16.10;80.00;;;;;;5074409;28;19931;-73
2022/04/22 11:46:04;;;;;;;;;;;16.20;80.00;;;;;;5074812;28;19924;-70
2022/04/22 11:48:30;;;;;;;;;;;16.20;80.60;;;;;;5075839;28;19970;-70
2022/04/22 11:50:59;;;;;;;;;;;16.10;78.70;;;;;;5075623;28;20403;-71
2022/04/22 11:53:32;;;;;;;;;;;16.20;78.70;;;;;;5075627;28;20395;-71
2022/04/22 11:55:58;;;;;;;;;;;16.20;81.20;;;;;;5073779;28;19928;-72
2022/04/22 11:58:24;;;;;;;;;;;16.30;78.70;;;;;;5075587;28;19932;-71
2022/04/22 12:06:20;;;;;;;;;;;16.50;85.30;;;;;;5075254;28;19931;-72
2022/04/22 12:08:56;;;;;;;;;;;16.70;82.60;;;;;;5074993;28;19924;-73
2022/04/22 12:11:22;;;;;;;;;;;16.70;86.60;;;;;;5065971;28;19929;-73
2022/04/22 12:13:48;;;;;;;;;;;16.80;82.80;;;;;;5074503;28;19968;-74
2022/04/22 12:16:21;;;;;;;;;;;16.80;80.30;;;;;;5074188;28;20010;-72
2022/04/22 12:18:50;;;;;;;;;;;16.90;82.00;;;;;;5067458;28;19924;-74
2022/04/22 12:21:17;;;;;;;;;;;16.80;81.90;;;;;;5072875;28;19932;-71
2022/04/22 12:23:43;;;;;;;;;;;16.90;86.00;;;;;;5074974;28;19955;-73
2022/04/22 12:26:15;;;;;;;;;;;17.00;86.10;;;;;;5075210;28;19931;-72
2022/04/22 12:28:55;;;;;;;;;;;17.00;79.40;;;;;;5075079;28;20446;-74
2022/04/22 12:31:21;;;;;;;;;;;16.90;81.60;;;;;;5074955;28;20394;-73
2022/04/22 12:33:55;;;;;;;;;;;17.00;84.50;;;;;;5074800;28;19931;-72
2022/04/22 12:36:21;;;;;;;;;;;17.00;85.50;;;;;;5073671;28;19932;-73
2022/04/22 12:38:46;;;;;;;;;;;17.10;88.50;;;;;;5074919;28;19924;-71
2022/04/22 12:41:20;;;;;;;;;;;17.10;85.60;;;;;;5074791;28;19929;-72
2022/04/22 12:43:47;;;;;;;;;;;17.10;86.70;;;;;;5074722;28;19925;-71
2022/04/22 12:52:11;;;;;;;;;;;17.20;84.60;;;;;;5074505;28;19991;-72
2022/04/22 12:54:37;;;;;;;;;;;17.30;86.20;;;;;;5074447;28;19946;-73
2022/04/22 12:57:06;;;;;;;;;;;17.30;82.10;;;;;;5074154;28;19924;-71
2022/04/22 12:59:51;;;;;;;;;;;17.20;80.00;;;;;;5074536;28;19928;-72
2022/04/22 13:02:18;;;;;;;;;;;17.20;83.20;;;;;;5074353;28;20297;-73
2022/04/22 13:04:54;;;;;;;;;;;17.10;80.40;;;;;;5074380;28;19967;-72
2022/04/22 13:07:21;;;;;;;;;;;16.90;82.20;;;;;;5074085;28;19975;-72
2022/04/22 13:09:47;;;;;;;;;;;17.00;84.50;;;;;;5073383;28;19924;-73
2022/04/22 13:12:12;;;;;;;;;;;17.00;86.60;;;;;;5074349;28;19928;-72
2022/04/22 13:14:38;;;;;;;;;;;17.10;80.00;;;;;;5074069;28;20368;-73
2022/04/22 13:17:04;;;;;;;;;;;17.10;78.70;;;;;;5074047;28;19968;-72
2022/04/22 13:19:30;;;;;;;;;;;17.10;76.80;;;;;;5073705;28;19924;-73
2022/04/22 13:21:55;;;;;;;;;;;17.10;79.90;;;;;;5071236;28;19924;-72
2022/04/22 13:24:21;;;;;;;;;;;17.00;78.20;;;;;;5055023;28;19929;-72
2022/04/22 13:26:47;;;;;;;;;;;17.20;79.90;;;;;;5086310;28;19928;-71
2022/04/22 13:29:12;;;;;;;;;;;17.10;79.00;;;;;;5054452;28;19947;-71
2022/04/22 13:31:38;;;;;;;;;;;17.30;80.70;;;;;;5072800;28;19932;-71
2022/04/22 13:34:04;;;;;;;;;;;17.40;77.60;;;;;;5073517;28;19969;-74
2022/04/22 13:36:42;;;;;;;;;;;17.50;77.30;;;;;;5073750;28;19932;-71
2022/04/22 13:39:08;;;;;;;;;;;17.40;73.80;;;;;;5073696;28;19975;-74
2022/04/22 13:41:34;;;;;;;;;;;17.40;75.40;;;;;;5073949;28;20038;-71
2022/04/22 13:44:00;;;;;;;;;;;17.40;78.30;;;;;;5073873;28;20294;-71
2022/04/22 13:54:37;;;;;;;;;;;17.30;75.00;;;;;;5073509;28;20368;-73
2022/04/22 13:57:03;;;;;;;;;;;17.40;73.90;;;;;;5071682;28;19973;-73
2022/04/22 13:59:28;;;;;;;;;;;17.50;73.50;;;;;;5073564;28;19978;-74
2022/04/22 14:01:54;;;;;;;;;;;17.70;70.70;;;;;;5073412;28;19925;-75
2022/04/22 14:04:20;;;;;;;;;;;17.80;72.10;;;;;;5073769;28;20639;-74
2022/04/22 14:06:47;;;;;;;;;;;17.90;71.80;;;;;;5073549;28;19924;-73
2022/04/22 14:09:13;;;;;;;;;;;17.90;68.60;;;;;;5073707;28;19942;-72
2022/04/22 14:11:39;;;;;;;;;;;17.90;68.00;;;;;;5073538;28;19991;-72
2022/04/22 14:14:04;;;;;;;;;;;17.80;68.30;;;;;;5073269;28;19929;-72
2022/04/22 14:16:30;;;;;;;;;;;17.80;69.10;;;;;;5072443;28;19966;-73
2022/04/22 14:18:56;;;;;;;;;;;17.90;67.10;;;;;;5073579;28;19990;-72
2022/04/22 14:21:22;;;;;;;;;;;17.80;66.20;;;;;;5072255;28;19935;-71
2022/04/22 14:23:48;;;;;;;;;;;17.70;66.90;;;;;;5072901;28;19924;-73
2022/04/22 14:26:14;;;;;;;;;;;17.60;68.20;;;;;;5073265;28;20023;-75
2022/04/22 14:28:40;;;;;;;;;;;17.60;66.00;;;;;;5073323;28;19975;-74
2022/04/22 14:31:06;;;;;;;;;;;17.60;66.90;;;;;;5073980;28;19971;-71
2022/04/22 14:33:32;;;;;;;;;;;17.60;64.20;;;;;;5075969;28;19929;-72
2022/04/22 14:35:58;;;;;;;;;;;17.70;64.00;;;;;;5077247;28;19929;-73
2022/04/22 14:38:24;;;;;;;;;;;17.80;65.40;;;;;;5077161;28;19985;-72
2022/04/22 14:40:49;;;;;;;;;;;17.80;65.10;;;;;;5075849;28;20382;-73
2022/04/22 14:43:15;;;;;;;;;;;17.70;64.80;;;;;;5075978;28;19925;-72
2022/04/22 14:45:41;;;;;;;;;;;17.70;65.40;;;;;;5076936;28;19931;-73
2022/04/22 14:48:06;;;;;;;;;;;17.60;64.90;;;;;;5076890;28;19924;-72
2022/04/22 14:50:32;;;;;;;;;;;17.50;64.90;;;;;;5076765;28;19929;-71
2022/04/22 14:52:58;;;;;;;;;;;17.40;65.50;;;;;;5075515;28;19982;-72
2022/04/22 14:55:23;;;;;;;;;;;17.40;64.60;;;;;;5076567;28;20423;-72
2022/04/22 14:57:49;;;;;;;;;;;17.50;66.30;;;;;;5076790;28;20023;-71
2022/04/22 15:00:15;;;;;;;;;;;17.70;67.50;;;;;;5076679;28;20368;-73
2022/04/22 15:02:40;;;;;;;;;;;17.90;66.00;;;;;;5076685;28;19974;-73
2022/04/22 15:05:06;;;;;;;;;;;18.00;66.40;;;;;;5076537;28;20436;-73
2022/04/22 15:07:32;;;;;;;;;;;18.20;62.70;;;;;;5076058;28;20292;-75
2022/04/22 15:09:58;;;;;;;;;;;18.20;62.50;;;;;;5076636;28;19989;-71
2022/04/22 15:12:23;;;;;;;;;;;18.30;62.80;;;;;;5074939;28;19924;-72
2022/04/22 15:14:52;;;;;;;;;;;18.40;62.60;;;;;;5076299;28;19924;-72
2022/04/22 15:24:09;;;;;;;;;;;18.40;62.60;;;;;;5075230;28;20300;-72
2022/04/22 15:25:35;;;;;;;;;;;18.60;60.60;;;;;;5076258;28;20015;-72
2022/04/22 15:28:00;;;;;;;;;;;18.50;61.70;;;;;;5076077;28;20396;-73
2022/04/22 15:30:45;;;;;;;;;;;18.50;62.50;;;;;;5076385;28;19977;-72
2022/04/22 15:33:11;;;;;;;;;;;18.40;63.40;;;;;;5075019;28;19932;-72
2022/04/22 15:35:36;;;;;;;;;;;18.30;63.80;;;;;;5074812;28;19925;-72